Time,TemperatureF,DewpointF,PressureIn,WindDirection,WindDirectionDegrees,WindSpeedMPH,WindSpeedGustMPH,Humidity,HourlyPrecipIn,Conditions,Clouds,dailyrainin,SoftwareType,DateUTC
2013-05-04 00:03:00,49.2,40.2,30.34,SE,125,0.0,2.0,71,0.00,,,0.00,Wunderground PWS Mod,2013-05-04 04:03:00,
2013-05-04 00:06:00,48.5,40.6,30.34,SE,135,0.0,2.0,74,0.00,,,0.00,Wunderground PWS Mod,2013-05-04 04:06:00,
2013-05-04 00:08:00,48.5,40.6,30.34,SE,135,0.0,2.0,74,0.00,,,0.00,Wunderground PWS Mod,2013-05-04 04:08:00,
2013-05-04 00:10:00,48.5,40.6,30.34,SE,135,0.0,2.0,74,0.00,,,0.00,Wunderground PWS Mod,2013-05-04 04:10:00,
2013-05-04 00:12:00,48.5,40.6,30.34,SE,135,0.0,2.0,74,0.00,,,0.00,Wunderground PWS Mod,2013-05-04 04:12:00,
2013-05-04 00:13:00,48.6,40.0,30.34,SE,125,0.0,2.0,72,0.00,,,0.00,Wunderground PWS Mod,2013-05-04 04:13:00,
2013-05-04 00:24:00,48.1,39.9,30.34,SE,125,0.0,2.0,73,0.00,,,0.00,Wunderground PWS Mod,2013-05-04 04:24:00,
2013-05-04 00:33:00,47.8,39.9,30.34,SE,125,0.0,2.0,74,0.00,,,0.00,Wunderground PWS Mod,2013-05-04 04:33:00,
2013-05-04 00:44:00,48.2,40.3,30.34,SE,124,2.0,2.0,74,0.00,,,0.00,Wunderground PWS Mod,2013-05-04 04:44:00,
2013-05-04 00:47:00,48.3,40.4,30.33,ESE,123,1.0,2.0,74,0.00,,,0.00,Wunderground PWS Mod,2013-05-04 04:47:00,
2013-05-04 00:50:00,47.9,40.4,30.33,SE,135,1.0,2.0,75,0.00,,,0.00,Wunderground PWS Mod,2013-05-04 04:50:00,
2013-05-04 00:52:00,47.9,40.4,30.33,SE,135,1.0,2.0,75,0.00,,,0.00,Wunderground PWS Mod,2013-05-04 04:52:00,
2013-05-04 00:53:00,47.5,40.0,30.33,ESE,123,2.0,2.0,75,0.00,,,0.00,Wunderground PWS Mod,2013-05-04 04:53:00,
2013-05-04 00:54:00,47.9,40.4,30.33,SE,135,1.0,2.0,75,0.00,,,0.00,Wunderground PWS Mod,2013-05-04 04:54:00,
2013-05-04 01:04:00,48.1,40.5,30.33,ESE,123,0.0,2.0,75,0.00,,,0.00,Wunderground PWS Mod,2013-05-04 05:04:00,
2013-05-04 01:14:00,48.9,41.3,30.33,ESE,122,0.0,2.0,75,0.00,,,0.00,Wunderground PWS Mod,2013-05-04 05:14:00,
2013-05-04 01:18:00,49.0,40.7,30.32,ESE,113,0.0,2.0,73,0.00,,,0.00,Wunderground PWS Mod,2013-05-04 05:18:00,
2013-05-04 01:23:00,49.4,41.8,30.32,ESE,122,0.0,2.0,75,0.00,,,0.00,Wunderground PWS Mod,2013-05-04 05:23:00,
2013-05-04 01:34:00,49.7,41.7,30.32,ESE,122,0.0,2.0,74,0.00,,,0.00,Wunderground PWS Mod,2013-05-04 05:34:00,
2013-05-04 01:43:00,49.3,42.1,30.31,ESE,120,1.0,2.0,76,0.00,,,0.00,Wunderground PWS Mod,2013-05-04 05:43:00,
2013-05-04 01:46:00,49.0,40.7,30.32,ESE,113,0.0,2.0,73,0.00,,,0.00,Wunderground PWS Mod,2013-05-04 05:46:00,
2013-05-04 01:54:00,48.8,42.2,30.31,ESE,116,1.0,2.0,78,0.00,,,0.00,Wunderground PWS Mod,2013-05-04 05:54:00,
2013-05-04 02:04:00,48.7,42.5,30.30,ENE,77,3.0,3.0,79,0.00,,,0.00,Wunderground PWS Mod,2013-05-04 06:04:00,
2013-05-04 02:14:00,48.8,42.6,30.30,ENE,61,3.0,4.0,79,0.00,,,0.00,Wunderground PWS Mod,2013-05-04 06:14:00,
2013-05-04 02:16:00,49.1,42.9,30.30,ESE,113,1.0,4.0,79,0.00,,,0.00,Wunderground PWS Mod,2013-05-04 06:16:00,
2013-05-04 02:24:00,48.8,42.9,30.30,ENE,61,3.0,4.0,80,0.00,,,0.00,Wunderground PWS Mod,2013-05-04 06:24:00,
2013-05-04 02:34:00,48.9,43.0,30.29,ENE,60,2.0,4.0,80,0.00,,,0.00,Wunderground PWS Mod,2013-05-04 06:34:00,
2013-05-04 02:43:00,49.0,43.1,30.29,NE,56,3.0,4.0,80,0.00,,,0.00,Wunderground PWS Mod,2013-05-04 06:43:00,
2013-05-04 02:48:00,49.1,43.2,30.29,NE,45,2.0,6.0,80,0.00,,,0.00,Wunderground PWS Mod,2013-05-04 06:48:00,
2013-05-04 02:54:00,49.2,43.3,30.29,NE,51,2.0,4.0,80,0.00,,,0.00,Wunderground PWS Mod,2013-05-04 06:54:00,
2013-05-04 03:04:00,49.6,43.7,30.28,East,83,2.0,4.0,80,0.00,,,0.00,Wunderground PWS Mod,2013-05-04 07:04:00,
2013-05-04 03:13:00,49.8,43.5,30.28,ESE,105,4.0,6.0,79,0.00,,,0.00,Wunderground PWS Mod,2013-05-04 07:13:00,
2013-05-04 03:16:00,49.1,43.2,30.29,NE,45,2.0,6.0,80,0.00,,,0.00,Wunderground PWS Mod,2013-05-04 07:16:00,
2013-05-04 03:24:00,50.1,43.5,30.28,ESE,102,4.0,6.0,78,0.00,,,0.00,Wunderground PWS Mod,2013-05-04 07:24:00,
2013-05-04 03:34:00,49.8,43.2,30.28,ENE,75,2.0,6.0,78,0.00,,,0.00,Wunderground PWS Mod,2013-05-04 07:34:00,
2013-05-04 03:44:00,50.0,43.4,30.27,ESE,103,3.0,6.0,78,0.00,,,0.00,Wunderground PWS Mod,2013-05-04 07:44:00,
2013-05-04 03:48:00,50.1,43.2,30.27,ESE,113,2.0,7.0,77,0.00,,,0.00,Wunderground PWS Mod,2013-05-04 07:48:00,
2013-05-04 03:54:00,50.4,43.5,30.27,ESE,110,4.0,6.0,77,0.00,,,0.00,Wunderground PWS Mod,2013-05-04 07:54:00,
2013-05-04 04:04:00,50.0,43.1,30.27,ENE,71,3.0,6.0,77,0.00,,,0.00,Wunderground PWS Mod,2013-05-04 08:04:00,
2013-05-04 04:10:00,50.1,43.2,30.27,ESE,113,2.0,7.0,77,0.00,,,0.00,Wunderground PWS Mod,2013-05-04 08:10:00,
2013-05-04 04:12:00,50.1,43.2,30.27,ESE,113,2.0,7.0,77,0.00,,,0.00,Wunderground PWS Mod,2013-05-04 08:12:00,
2013-05-04 04:14:00,49.4,42.8,30.28,ENE,63,3.0,7.0,78,0.00,,,0.00,Wunderground PWS Mod,2013-05-04 08:14:00,
2013-05-04 04:24:00,49.1,42.5,30.28,ENE,70,2.0,7.0,78,0.00,,,0.00,Wunderground PWS Mod,2013-05-04 08:24:00,
2013-05-04 04:33:00,49.1,42.5,30.27,ESE,106,1.0,7.0,78,0.00,,,0.00,Wunderground PWS Mod,2013-05-04 08:33:00,
2013-05-04 04:44:00,49.1,42.5,30.27,ESE,106,0.0,7.0,78,0.00,,,0.00,Wunderground PWS Mod,2013-05-04 08:44:00,
2013-05-04 04:48:00,49.1,42.9,30.28,ESE,113,0.0,2.0,79,0.00,,,0.00,Wunderground PWS Mod,2013-05-04 08:48:00,
2013-05-04 04:54:00,49.1,42.5,30.27,ESE,106,0.0,7.0,78,0.00,,,0.00,Wunderground PWS Mod,2013-05-04 08:54:00,
2013-05-04 05:03:00,48.8,42.6,30.28,ESE,106,1.0,5.0,79,0.00,,,0.00,Wunderground PWS Mod,2013-05-04 09:03:00,
2013-05-04 05:13:00,48.4,42.5,30.27,ESE,106,1.0,5.0,80,0.00,,,0.00,Wunderground PWS Mod,2013-05-04 09:13:00,
2013-05-04 05:18:00,48.5,42.9,30.28,ESE,113,1.0,2.0,81,0.00,,,0.00,Wunderground PWS Mod,2013-05-04 09:18:00,
2013-05-04 05:24:00,48.5,42.3,30.28,ESE,106,1.0,5.0,79,0.00,,,0.00,Wunderground PWS Mod,2013-05-04 09:24:00,
2013-05-04 05:33:00,48.3,42.4,30.28,ESE,106,0.0,5.0,80,0.00,,,0.00,Wunderground PWS Mod,2013-05-04 09:33:00,
2013-05-04 05:44:00,47.8,42.3,30.28,ESE,106,0.0,5.0,81,0.00,,,0.00,Wunderground PWS Mod,2013-05-04 09:44:00,
2013-05-04 05:46:00,48.5,42.9,30.28,ESE,113,1.0,2.0,81,0.00,,,0.00,Wunderground PWS Mod,2013-05-04 09:46:00,
2013-05-04 05:54:00,47.6,42.1,30.28,ESE,106,0.0,5.0,81,0.00,,,0.00,Wunderground PWS Mod,2013-05-04 09:54:00,
2013-05-04 06:04:00,47.3,42.1,30.29,ESE,106,0.0,2.0,82,0.00,,,0.00,Wunderground PWS Mod,2013-05-04 10:04:00,
2013-05-04 06:14:00,47.4,42.5,30.29,ESE,106,1.0,2.0,83,0.00,,,0.00,Wunderground PWS Mod,2013-05-04 10:14:00,
2013-05-04 06:16:00,47.8,42.6,30.28,ESE,113,0.0,1.0,82,0.00,,,0.00,Wunderground PWS Mod,2013-05-04 10:16:00,
2013-05-04 06:23:00,47.6,42.7,30.29,ESE,105,2.0,2.0,83,0.00,,,0.00,Wunderground PWS Mod,2013-05-04 10:23:00,
2013-05-04 06:34:00,48.2,43.0,30.29,NNE,30,2.0,2.0,82,0.00,,,0.00,Wunderground PWS Mod,2013-05-04 10:34:00,
2013-05-04 06:43:00,47.7,42.8,30.29,NE,46,3.0,3.0,83,0.00,,,0.00,Wunderground PWS Mod,2013-05-04 10:43:00,
2013-05-04 06:48:00,48.0,43.1,30.29,NE,45,2.0,6.0,83,0.00,,,0.00,Wunderground PWS Mod,2013-05-04 10:48:00,
2013-05-04 06:54:00,48.1,43.5,30.30,NNE,32,4.0,5.0,84,0.00,,,0.00,Wunderground PWS Mod,2013-05-04 10:54:00,
2013-05-04 07:04:00,48.7,43.5,30.29,NNE,30,8.0,8.0,82,0.00,,,0.00,Wunderground PWS Mod,2013-05-04 11:04:00,
2013-05-04 07:10:00,48.0,43.1,30.29,NE,45,2.0,6.0,83,0.00,,,0.00,Wunderground PWS Mod,2013-05-04 11:10:00,
2013-05-04 07:12:00,48.0,43.1,30.29,NE,45,2.0,6.0,83,0.00,,,0.00,Wunderground PWS Mod,2013-05-04 11:12:00,
2013-05-04 07:13:00,48.7,44.1,30.30,NE,41,1.0,8.0,84,0.00,,,0.00,Wunderground PWS Mod,2013-05-04 11:13:00,
2013-05-04 07:24:00,48.7,43.8,30.29,NNE,25,3.0,8.0,83,0.00,,,0.00,Wunderground PWS Mod,2013-05-04 11:24:00,
2013-05-04 07:34:00,49.3,43.7,30.29,NNE,25,1.0,8.0,81,0.00,,,0.00,Wunderground PWS Mod,2013-05-04 11:34:00,
2013-05-04 07:38:00,48.7,43.5,30.29,NNE,23,3.0,8.0,82,0.00,,,0.00,Wunderground PWS Mod,2013-05-04 11:38:00,
2013-05-04 07:44:00,49.5,44.2,30.30,NNE,32,3.0,8.0,82,0.00,,,0.00,Wunderground PWS Mod,2013-05-04 11:44:00,
2013-05-04 07:54:00,49.6,43.7,30.30,NE,50,2.0,8.0,80,0.00,,,0.00,Wunderground PWS Mod,2013-05-04 11:54:00,
2013-05-04 08:03:00,50.1,44.2,30.30,NE,38,3.0,8.0,80,0.00,,,0.00,Wunderground PWS Mod,2013-05-04 12:03:00,
2013-05-04 08:10:00,49.5,43.6,30.30,NNE,23,3.0,7.0,80,0.00,,,0.00,Wunderground PWS Mod,2013-05-04 12:10:00,
2013-05-04 08:12:00,49.5,43.6,30.30,NNE,23,3.0,7.0,80,0.00,,,0.00,Wunderground PWS Mod,2013-05-04 12:12:00,
2013-05-04 08:13:00,50.7,44.1,30.30,NE,45,3.0,8.0,78,0.00,,,0.00,Wunderground PWS Mod,2013-05-04 12:13:00,
2013-05-04 08:14:00,49.5,43.6,30.30,NNE,23,3.0,7.0,80,0.00,,,0.00,Wunderground PWS Mod,2013-05-04 12:14:00,
2013-05-04 08:34:00,51.0,44.0,30.30,NE,42,4.0,8.0,77,0.00,,,0.00,Wunderground PWS Mod,2013-05-04 12:34:00,
2013-05-04 08:43:00,51.4,44.4,30.30,NE,53,5.0,8.0,77,0.00,,,0.00,Wunderground PWS Mod,2013-05-04 12:43:00,
2013-05-04 08:46:00,50.6,43.7,30.30,NE,45,3.0,7.0,77,0.00,,,0.00,Wunderground PWS Mod,2013-05-04 12:46:00,
2013-05-04 08:54:00,51.8,43.8,30.30,ENE,60,2.0,8.0,74,0.00,,,0.00,Wunderground PWS Mod,2013-05-04 12:54:00,
2013-05-04 09:04:00,52.4,43.6,30.30,ESE,104,6.0,7.0,72,0.00,,,0.00,Wunderground PWS Mod,2013-05-04 13:04:00,
2013-05-04 09:13:00,53.0,43.1,30.30,ENE,71,5.0,12.0,69,0.00,,,0.00,Wunderground PWS Mod,2013-05-04 13:13:00,
2013-05-04 09:18:00,53.1,43.2,30.29,NE,45,4.0,9.0,69,0.00,,,0.00,Wunderground PWS Mod,2013-05-04 13:18:00,
2013-05-04 09:24:00,53.2,44.0,30.29,NE,52,3.0,12.0,71,0.00,,,0.00,Wunderground PWS Mod,2013-05-04 13:24:00,
2013-05-04 09:33:00,53.6,42.9,30.29,ESE,105,5.0,12.0,67,0.00,,,0.00,Wunderground PWS Mod,2013-05-04 13:33:00,
2013-05-04 09:44:00,53.9,42.8,30.29,East,96,3.0,12.0,66,0.00,,,0.00,Wunderground PWS Mod,2013-05-04 13:44:00,
2013-05-04 09:46:00,53.1,43.2,30.29,NE,45,4.0,9.0,69,0.00,,,0.00,Wunderground PWS Mod,2013-05-04 13:46:00,
2013-05-04 09:54:00,54.0,43.7,30.28,ENE,67,5.0,12.0,68,0.00,,,0.00,Wunderground PWS Mod,2013-05-04 13:54:00,
2013-05-04 10:03:00,54.3,43.6,30.29,ENE,64,5.0,9.0,67,0.00,,,0.00,Wunderground PWS Mod,2013-05-04 14:03:00,
2013-05-04 10:13:00,54.9,43.4,30.28,East,88,5.0,12.0,65,0.00,,,0.00,Wunderground PWS Mod,2013-05-04 14:13:00,
2013-05-04 10:16:00,53.9,42.8,30.29,ENE,68,5.0,12.0,66,0.00,,,0.00,Wunderground PWS Mod,2013-05-04 14:16:00,
2013-05-04 10:24:00,54.8,43.3,30.28,ENE,67,3.0,12.0,65,0.00,,,0.00,Wunderground PWS Mod,2013-05-04 14:24:00,
2013-05-04 10:33:00,55.1,43.5,30.28,ENE,63,6.0,12.0,65,0.00,,,0.00,Wunderground PWS Mod,2013-05-04 14:33:00,
2013-05-04 10:44:00,55.9,43.1,30.28,East,97,2.0,12.0,62,0.00,,,0.00,Wunderground PWS Mod,2013-05-04 14:44:00,
2013-05-04 10:48:00,56.0,42.3,30.28,ENE,68,4.0,9.0,60,0.00,,,0.00,Wunderground PWS Mod,2013-05-04 14:48:00,
2013-05-04 10:53:00,56.7,43.0,30.28,East,86,2.0,12.0,60,0.00,,,0.00,Wunderground PWS Mod,2013-05-04 14:53:00,
2013-05-04 11:04:00,57.0,43.2,30.28,East,83,4.0,11.0,60,0.00,,,0.00,Wunderground PWS Mod,2013-05-04 15:04:00,
2013-05-04 11:10:00,56.0,42.3,30.28,ENE,68,4.0,9.0,60,0.00,,,0.00,Wunderground PWS Mod,2013-05-04 15:10:00,
2013-05-04 11:12:00,56.0,42.3,30.28,ENE,68,4.0,9.0,60,0.00,,,0.00,Wunderground PWS Mod,2013-05-04 15:12:00,
2013-05-04 11:14:00,56.9,42.7,30.28,East,100,3.0,11.0,59,0.00,,,0.00,Wunderground PWS Mod,2013-05-04 15:14:00,
2013-05-04 11:24:00,57.1,42.9,30.27,NE,38,4.0,11.0,59,0.00,,,0.00,Wunderground PWS Mod,2013-05-04 15:24:00,
2013-05-04 11:34:00,57.9,43.2,30.27,NNE,17,2.0,11.0,58,0.00,,,0.00,Wunderground PWS Mod,2013-05-04 15:34:00,
2013-05-04 11:44:00,58.4,43.7,30.27,NE,42,3.0,11.0,58,0.00,,,0.00,Wunderground PWS Mod,2013-05-04 15:44:00,
2013-05-04 11:50:00,58.2,42.6,30.27,ENE,68,4.0,8.0,56,0.00,,,0.00,Wunderground PWS Mod,2013-05-04 15:50:00,
2013-05-04 11:52:00,58.2,42.6,30.27,ENE,68,4.0,8.0,56,0.00,,,0.00,Wunderground PWS Mod,2013-05-04 15:52:00,
2013-05-04 11:54:00,58.2,42.6,30.27,ENE,64,6.0,11.0,56,0.00,,,0.00,Wunderground PWS Mod,2013-05-04 15:54:00,
2013-05-04 12:03:00,58.6,43.4,30.27,NE,55,5.0,10.0,57,0.00,,,0.00,Wunderground PWS Mod,2013-05-04 16:03:00,
2013-05-04 12:14:00,59.8,43.1,30.26,East,82,2.0,10.0,54,0.00,,,0.00,Wunderground PWS Mod,2013-05-04 16:14:00,
2013-05-04 12:18:00,59.8,41.6,30.26,NE,45,4.0,12.0,51,0.00,,,0.00,Wunderground PWS Mod,2013-05-04 16:18:00,
2013-05-04 12:24:00,60.1,41.9,30.26,NNE,26,3.0,10.0,51,0.00,,,0.00,Wunderground PWS Mod,2013-05-04 16:24:00,
2013-05-04 12:33:00,61.0,42.7,30.26,NNE,25,3.0,10.0,51,0.00,,,0.00,Wunderground PWS Mod,2013-05-04 16:33:00,
2013-05-04 12:44:00,61.8,40.8,30.25,ENE,77,5.0,12.0,46,0.00,,,0.00,Wunderground PWS Mod,2013-05-04 16:44:00,
2013-05-04 12:48:00,61.3,40.3,30.25,ESE,113,5.0,12.0,46,0.00,,,0.00,Wunderground PWS Mod,2013-05-04 16:48:00,
2013-05-04 12:54:00,61.3,40.3,30.25,ENE,61,3.0,12.0,46,0.00,,,0.00,Wunderground PWS Mod,2013-05-04 16:54:00,
2013-05-04 13:04:00,61.8,40.8,30.25,ENE,72,1.0,12.0,46,0.00,,,0.00,Wunderground PWS Mod,2013-05-04 17:04:00,
2013-05-04 13:14:00,62.8,41.1,30.25,SE,124,4.0,12.0,45,0.00,,,0.00,Wunderground PWS Mod,2013-05-04 17:14:00,
2013-05-04 13:18:00,62.7,42.2,30.25,East,90,5.0,14.0,47,0.00,,,0.00,Wunderground PWS Mod,2013-05-04 17:18:00,
2013-05-04 13:24:00,63.0,40.7,30.25,ENE,67,4.0,12.0,44,0.00,,,0.00,Wunderground PWS Mod,2013-05-04 17:24:00,
2013-05-04 13:34:00,62.6,41.5,30.24,ENE,63,6.0,12.0,46,0.00,,,0.00,Wunderground PWS Mod,2013-05-04 17:34:00,
2013-05-04 13:44:00,63.1,40.8,30.24,East,85,7.0,14.0,44,0.00,,,0.00,Wunderground PWS Mod,2013-05-04 17:44:00,
2013-05-04 13:50:00,63.0,40.7,30.24,ESE,113,5.0,13.0,44,0.00,,,0.00,Wunderground PWS Mod,2013-05-04 17:50:00,
2013-05-04 13:52:00,63.0,40.7,30.24,ESE,113,5.0,13.0,44,0.00,,,0.00,Wunderground PWS Mod,2013-05-04 17:52:00,
2013-05-04 13:54:00,63.3,41.6,30.24,ESE,102,4.0,14.0,45,0.00,,,0.00,Wunderground PWS Mod,2013-05-04 17:54:00,
2013-05-04 14:04:00,64.7,41.7,30.23,ESE,111,4.0,14.0,43,0.00,,,0.00,Wunderground PWS Mod,2013-05-04 18:04:00,
2013-05-04 14:14:00,64.6,42.2,30.23,ESE,106,6.0,14.0,44,0.00,,,0.00,Wunderground PWS Mod,2013-05-04 18:14:00,
2013-05-04 14:16:00,63.0,40.7,30.24,ESE,113,5.0,13.0,44,0.00,,,0.00,Wunderground PWS Mod,2013-05-04 18:16:00,
2013-05-04 14:24:00,65.0,41.3,30.23,SE,136,13.0,14.0,42,0.00,,,0.00,Wunderground PWS Mod,2013-05-04 18:24:00,
2013-05-04 14:34:00,64.6,41.0,30.23,SSE,151,10.0,14.0,42,0.00,,,0.00,Wunderground PWS Mod,2013-05-04 18:34:00,
2013-05-04 14:44:00,65.0,41.3,30.23,SE,134,9.0,17.0,42,0.00,,,0.00,Wunderground PWS Mod,2013-05-04 18:44:00,
2013-05-04 14:48:00,64.7,41.1,30.22,ESE,113,7.0,16.0,42,0.00,,,0.00,Wunderground PWS Mod,2013-05-04 18:48:00,
2013-05-04 14:54:00,64.8,41.2,30.22,ESE,112,11.0,17.0,42,0.00,,,0.00,Wunderground PWS Mod,2013-05-04 18:54:00,
2013-05-04 15:03:00,64.9,41.2,30.22,ESE,123,9.0,17.0,42,0.00,,,0.00,Wunderground PWS Mod,2013-05-04 19:03:00,
2013-05-04 15:14:00,65.1,41.4,30.22,SE,133,8.0,17.0,42,0.00,,,0.00,Wunderground PWS Mod,2013-05-04 19:14:00,
2013-05-04 15:18:00,65.3,41.0,30.21,ESE,113,7.0,17.0,41,0.00,,,0.00,Wunderground PWS Mod,2013-05-04 19:18:00,
2013-05-04 15:24:00,65.9,41.5,30.21,ESE,112,1.0,17.0,41,0.00,,,0.00,Wunderground PWS Mod,2013-05-04 19:24:00,
2013-05-04 15:34:00,65.4,41.1,30.21,SE,145,8.0,17.0,41,0.00,,,0.00,Wunderground PWS Mod,2013-05-04 19:34:00,
2013-05-04 15:43:00,65.9,41.5,30.21,SE,133,5.0,17.0,41,0.00,,,0.00,Wunderground PWS Mod,2013-05-04 19:43:00,
2013-05-04 15:46:00,65.3,41.0,30.21,ESE,113,7.0,17.0,41,0.00,,,0.00,Wunderground PWS Mod,2013-05-04 19:46:00,
2013-05-04 15:54:00,65.7,40.7,30.20,ESE,112,10.0,17.0,40,0.00,,,0.00,Wunderground PWS Mod,2013-05-04 19:54:00,
2013-05-04 16:04:00,65.8,41.4,30.20,SE,136,7.0,17.0,41,0.00,,,0.00,Wunderground PWS Mod,2013-05-04 20:04:00,
2013-05-04 16:10:00,65.7,41.3,30.20,ESE,113,8.0,16.0,41,0.00,,,0.00,Wunderground PWS Mod,2013-05-04 20:10:00,
2013-05-04 16:12:00,65.7,41.3,30.20,ESE,113,8.0,16.0,41,0.00,,,0.00,Wunderground PWS Mod,2013-05-04 20:12:00,
2013-05-04 16:13:00,65.8,40.8,30.20,ESE,112,4.0,17.0,40,0.00,,,0.00,Wunderground PWS Mod,2013-05-04 20:13:00,
2013-05-04 16:14:00,65.7,41.3,30.20,ESE,113,8.0,16.0,41,0.00,,,0.00,Wunderground PWS Mod,2013-05-04 20:14:00,
2013-05-04 16:24:00,66.3,40.6,30.20,ESE,109,14.0,17.0,39,0.00,,,0.00,Wunderground PWS Mod,2013-05-04 20:24:00,
2013-05-04 16:34:00,67.2,41.4,30.19,ESE,108,4.0,17.0,39,0.00,,,0.00,Wunderground PWS Mod,2013-05-04 20:34:00,
2013-05-04 16:44:00,67.0,40.5,30.19,ESE,121,10.0,18.0,38,0.00,,,0.00,Wunderground PWS Mod,2013-05-04 20:44:00,
2013-05-04 16:46:00,66.1,40.4,30.20,ESE,113,6.0,18.0,39,0.00,,,0.00,Wunderground PWS Mod,2013-05-04 20:46:00,
2013-05-04 16:54:00,66.5,40.8,30.19,SE,131,11.0,18.0,39,0.00,,,0.00,Wunderground PWS Mod,2013-05-04 20:54:00,
2013-05-04 17:04:00,66.8,41.7,30.19,ESE,104,7.0,18.0,40,0.00,,,0.00,Wunderground PWS Mod,2013-05-04 21:04:00,
2013-05-04 17:14:00,66.6,42.2,30.19,SE,141,1.0,18.0,41,0.00,,,0.00,Wunderground PWS Mod,2013-05-04 21:14:00,
2013-05-04 17:16:00,66.8,41.7,30.19,SE,135,6.0,16.0,40,0.00,,,0.00,Wunderground PWS Mod,2013-05-04 21:16:00,
2013-05-04 17:24:00,67.4,42.2,30.18,ESE,121,11.0,18.0,40,0.00,,,0.00,Wunderground PWS Mod,2013-05-04 21:24:00,
2013-05-04 17:34:00,66.8,42.3,30.18,ESE,105,2.0,18.0,41,0.00,,,0.00,Wunderground PWS Mod,2013-05-04 21:34:00,
2013-05-04 17:43:00,66.6,42.2,30.18,ESE,111,11.0,18.0,41,0.00,,,0.00,Wunderground PWS Mod,2013-05-04 21:43:00,
2013-05-04 17:48:00,66.6,42.2,30.18,ESE,113,6.0,15.0,41,0.00,,,0.00,Wunderground PWS Mod,2013-05-04 21:48:00,
2013-05-04 17:54:00,66.5,41.4,30.18,ESE,109,7.0,18.0,40,0.00,,,0.00,Wunderground PWS Mod,2013-05-04 21:54:00,
2013-05-04 18:03:00,66.7,42.2,30.18,ESE,111,4.0,13.0,41,0.00,,,0.00,Wunderground PWS Mod,2013-05-04 22:03:00,
2013-05-04 18:14:00,65.7,42.0,30.18,East,89,2.0,15.0,42,0.00,,,0.00,Wunderground PWS Mod,2013-05-04 22:14:00,
2013-05-04 18:18:00,65.6,42.5,30.18,ESE,113,7.0,14.0,43,0.00,,,0.00,Wunderground PWS Mod,2013-05-04 22:18:00,
2013-05-04 18:24:00,65.2,41.5,30.19,ESE,109,5.0,15.0,42,0.00,,,0.00,Wunderground PWS Mod,2013-05-04 22:24:00,
2013-05-04 18:34:00,64.4,42.0,30.18,ESE,109,10.0,15.0,44,0.00,,,0.00,Wunderground PWS Mod,2013-05-04 22:34:00,
2013-05-04 18:44:00,63.9,41.5,30.18,SE,130,5.0,15.0,44,0.00,,,0.00,Wunderground PWS Mod,2013-05-04 22:44:00,
2013-05-04 18:50:00,63.7,40.2,30.20,ESE,113,7.0,17.0,42,0.00,,,0.00,Wunderground PWS Mod,2013-05-04 22:50:00,
2013-05-04 18:52:00,63.7,40.2,30.20,ESE,113,7.0,17.0,42,0.00,,,0.00,Wunderground PWS Mod,2013-05-04 22:52:00,
2013-05-04 18:54:00,63.4,39.9,30.19,ESE,112,8.0,15.0,42,0.00,,,0.00,Wunderground PWS Mod,2013-05-04 22:54:00,
2013-05-04 19:04:00,62.4,39.0,30.19,ESE,117,7.0,14.0,42,0.00,,,0.00,Wunderground PWS Mod,2013-05-04 23:04:00,
2013-05-04 19:10:00,63.7,40.2,30.20,ESE,113,7.0,17.0,42,0.00,,,0.00,Wunderground PWS Mod,2013-05-04 23:10:00,
2013-05-04 19:12:00,63.7,40.2,30.20,ESE,113,7.0,17.0,42,0.00,,,0.00,Wunderground PWS Mod,2013-05-04 23:12:00,
2013-05-04 19:14:00,61.8,37.8,30.19,ESE,115,14.0,17.0,41,0.00,,,0.00,Wunderground PWS Mod,2013-05-04 23:14:00,
2013-05-04 19:24:00,61.0,37.1,30.19,SE,128,7.0,17.0,41,0.00,,,0.00,Wunderground PWS Mod,2013-05-04 23:24:00,
2013-05-04 19:34:00,60.4,37.8,30.20,ESE,123,4.0,17.0,43,0.00,,,0.00,Wunderground PWS Mod,2013-05-04 23:34:00,
2013-05-04 19:44:00,60.0,37.4,30.20,SE,133,10.0,18.0,43,0.00,,,0.00,Wunderground PWS Mod,2013-05-04 23:44:00,
2013-05-04 19:50:00,59.9,38.5,30.20,SE,135,6.0,13.0,45,0.00,,,0.00,Wunderground PWS Mod,2013-05-04 23:50:00,
2013-05-04 19:52:00,59.9,38.5,30.20,SE,135,6.0,13.0,45,0.00,,,0.00,Wunderground PWS Mod,2013-05-04 23:52:00,
2013-05-04 19:53:00,59.7,37.7,30.20,SSE,150,3.0,18.0,44,0.00,,,0.00,Wunderground PWS Mod,2013-05-04 23:53:00,
2013-05-04 19:54:00,59.9,38.5,30.20,SE,135,6.0,13.0,45,0.00,,,0.00,Wunderground PWS Mod,2013-05-04 23:54:00,
2013-05-04 20:04:00,59.1,37.8,30.20,ESE,119,3.0,18.0,45,0.00,,,0.00,Wunderground PWS Mod,2013-05-05 00:04:00,
2013-05-04 20:14:00,59.0,38.2,30.20,SSE,148,3.0,18.0,46,0.00,,,0.00,Wunderground PWS Mod,2013-05-05 00:14:00,
2013-05-04 20:18:00,58.8,38.6,30.20,SE,135,3.0,9.0,47,0.00,,,0.00,Wunderground PWS Mod,2013-05-05 00:18:00,
2013-05-04 20:24:00,58.5,38.3,30.20,SSE,148,2.0,18.0,47,0.00,,,0.00,Wunderground PWS Mod,2013-05-05 00:24:00,
2013-05-04 20:34:00,58.3,38.1,30.20,SE,142,1.0,18.0,47,0.00,,,0.00,Wunderground PWS Mod,2013-05-05 00:34:00,
2013-05-04 20:44:00,58.0,38.4,30.20,South,188,1.0,18.0,48,0.00,,,0.00,Wunderground PWS Mod,2013-05-05 00:44:00,
2013-05-04 20:50:00,57.8,39.8,30.21,South,180,2.0,5.0,51,0.00,,,0.00,Wunderground PWS Mod,2013-05-05 00:50:00,
2013-05-04 20:52:00,57.8,39.8,30.21,South,180,2.0,5.0,51,0.00,,,0.00,Wunderground PWS Mod,2013-05-05 00:52:00,
2013-05-04 20:54:00,57.4,38.9,30.21,South,181,2.0,18.0,50,0.00,,,0.00,Wunderground PWS Mod,2013-05-05 00:54:00,
2013-05-04 21:04:00,57.8,39.8,30.21,South,180,2.0,5.0,51,0.00,,,0.00,Wunderground PWS Mod,2013-05-05 01:04:00,
2013-05-04 21:06:00,57.8,39.8,30.21,South,180,2.0,5.0,51,0.00,,,0.00,Wunderground PWS Mod,2013-05-05 01:06:00,
2013-05-04 21:08:00,57.8,39.8,30.21,South,180,2.0,5.0,51,0.00,,,0.00,Wunderground PWS Mod,2013-05-05 01:08:00,
2013-05-04 21:10:00,57.8,39.8,30.21,South,180,2.0,5.0,51,0.00,,,0.00,Wunderground PWS Mod,2013-05-05 01:10:00,
2013-05-04 21:12:00,57.8,39.8,30.21,South,180,2.0,5.0,51,0.00,,,0.00,Wunderground PWS Mod,2013-05-05 01:12:00,
2013-05-04 21:13:00,56.0,39.1,30.22,SE,132,3.0,5.0,53,0.00,,,0.00,Wunderground PWS Mod,2013-05-05 01:13:00,
2013-05-04 21:24:00,55.7,38.3,30.22,SE,130,2.0,5.0,52,0.00,,,0.00,Wunderground PWS Mod,2013-05-05 01:24:00,
2013-05-04 21:33:00,55.6,38.2,30.22,SE,128,3.0,5.0,52,0.00,,,0.00,Wunderground PWS Mod,2013-05-05 01:33:00,
2013-05-04 21:44:00,55.2,38.8,30.23,SE,127,4.0,8.0,54,0.00,,,0.00,Wunderground PWS Mod,2013-05-05 01:44:00,
2013-05-04 21:50:00,55.1,40.1,30.23,ESE,113,4.0,11.0,57,0.00,,,0.00,Wunderground PWS Mod,2013-05-05 01:50:00,
2013-05-04 21:52:00,55.1,40.1,30.23,ESE,113,4.0,11.0,57,0.00,,,0.00,Wunderground PWS Mod,2013-05-05 01:52:00,
2013-05-04 21:54:00,54.7,39.3,30.23,ESE,115,5.0,8.0,56,0.00,,,0.00,Wunderground PWS Mod,2013-05-05 01:54:00,
2013-05-04 22:04:00,54.4,39.5,30.23,SE,127,5.0,8.0,57,0.00,,,0.00,Wunderground PWS Mod,2013-05-05 02:04:00,
2013-05-04 22:10:00,55.1,40.1,30.23,ESE,113,4.0,11.0,57,0.00,,,0.00,Wunderground PWS Mod,2013-05-05 02:10:00,
2013-05-04 22:12:00,55.1,40.1,30.23,ESE,113,4.0,11.0,57,0.00,,,0.00,Wunderground PWS Mod,2013-05-05 02:12:00,
2013-05-04 22:14:00,54.0,39.5,30.24,SE,131,3.0,11.0,58,0.00,,,0.00,Wunderground PWS Mod,2013-05-05 02:14:00,
2013-05-04 22:24:00,53.5,39.1,30.24,SE,140,10.0,11.0,58,0.00,,,0.00,Wunderground PWS Mod,2013-05-05 02:24:00,
2013-05-04 22:33:00,53.1,38.7,30.24,ESE,116,6.0,11.0,58,0.00,,,0.00,Wunderground PWS Mod,2013-05-05 02:33:00,
2013-05-04 22:44:00,53.1,38.7,30.24,ESE,116,2.0,14.0,58,0.00,,,0.00,Wunderground PWS Mod,2013-05-05 02:44:00,
2013-05-04 22:46:00,53.7,39.3,30.24,ESE,113,6.0,14.0,58,0.00,,,0.00,Wunderground PWS Mod,2013-05-05 02:46:00,
2013-05-04 22:54:00,52.7,38.8,30.24,ESE,122,3.0,14.0,59,0.00,,,0.00,Wunderground PWS Mod,2013-05-05 02:54:00,
2013-05-04 23:04:00,52.7,39.2,30.23,SE,127,1.0,14.0,60,0.00,,,0.00,Wunderground PWS Mod,2013-05-05 03:04:00,
2013-05-04 23:14:00,52.5,39.4,30.24,SE,127,1.0,14.0,61,0.00,,,0.00,Wunderground PWS Mod,2013-05-05 03:14:00,
2013-05-04 23:18:00,52.3,39.7,30.24,SE,135,1.0,3.0,62,0.00,,,0.00,Wunderground PWS Mod,2013-05-05 03:18:00,
2013-05-04 23:24:00,52.0,39.4,30.23,SE,127,2.0,14.0,62,0.00,,,0.00,Wunderground PWS Mod,2013-05-05 03:24:00,
2013-05-04 23:34:00,51.9,39.7,30.24,SE,127,2.0,14.0,63,0.00,,,0.00,Wunderground PWS Mod,2013-05-05 03:34:00,
2013-05-04 23:44:00,51.4,39.6,30.24,SE,127,2.0,14.0,64,0.00,,,0.00,Wunderground PWS Mod,2013-05-05 03:44:00,
2013-05-04 23:46:00,52.3,39.7,30.24,SE,135,1.0,3.0,62,0.00,,,0.00,Wunderground PWS Mod,2013-05-05 03:46:00,
2013-05-04 23:53:00,51.0,39.6,30.23,SE,128,1.0,14.0,65,0.00,,,0.00,Wunderground PWS Mod,2013-05-05 03:53:00,